Terminal Aerodrome Forecast
Issued by NWS Tallahassee, FL

Home | Current Version | Previous Version | Text Only | Print | Product List | Glossary On
Versions: 1 2 3 4 5 6 7 8 9 10 11 12 13 14 15
000
FTUS42 KTAE 241120
TAFTLH
TAF
KTLH 241120Z 2412/2512 15003KT 6SM BR SCT020
     FM241500 17007KT P6SM SCT050
     FM250700 15003KT 6SM BR SCT020=

USA.gov is the U.S. government's official web portal to all federal, state and local government web resources and services.